createdAt,value
2019-03-28T00:02:20.499Z,18.13
2019-03-28T00:04:51.948Z,18.32
2019-03-28T00:07:24.302Z,18.95
2019-03-28T00:09:55.832Z,18.15
2019-03-28T00:12:27.067Z,17.82
2019-03-28T00:14:58.381Z,17.70
2019-03-28T00:17:29.727Z,17.20
2019-03-28T00:20:01.028Z,17.42
2019-03-28T00:22:43.014Z,17.07
2019-03-28T00:25:14.747Z,16.85
2019-03-28T00:27:46.311Z,16.20
2019-03-28T00:30:19.444Z,15.80
2019-03-28T00:32:50.774Z,15.87
2019-03-28T00:35:22.122Z,15.63
2019-03-28T00:37:53.459Z,14.98
2019-03-28T00:40:24.747Z,14.33
2019-03-28T00:42:56.001Z,15.40
2019-03-28T00:45:27.353Z,15.60
2019-03-28T00:47:58.662Z,14.40
2019-03-28T00:50:32.863Z,16.57
2019-03-28T00:53:03.067Z,16.32
2019-03-28T00:55:34.399Z,16.50
2019-03-28T00:58:05.715Z,16.12
2019-03-28T01:00:37.056Z,17.15
2019-03-28T01:03:08.396Z,14.78
2019-03-28T01:05:39.627Z,16.97
2019-03-28T01:08:10.975Z,14.30
2019-03-28T01:10:42.354Z,14.90
2019-03-28T01:13:13.614Z,15.80
2019-03-28T01:15:44.895Z,15.35
2019-03-28T01:18:16.102Z,15.98
2019-03-28T01:20:47.451Z,16.20
2019-03-28T01:23:18.716Z,16.10
2019-03-28T01:25:50.054Z,14.45
2019-03-28T01:28:21.363Z,15.23
2019-03-28T01:30:52.722Z,15.18
2019-03-28T01:33:23.968Z,15.55
2019-03-28T01:35:55.291Z,15.68
2019-03-28T01:38:26.623Z,16.30
2019-03-28T01:40:57.939Z,16.35
2019-03-28T01:43:29.247Z,16.27
2019-03-28T01:46:00.523Z,16.37
2019-03-28T01:48:31.772Z,15.53
2019-03-28T01:51:03.101Z,16.95
2019-03-28T01:53:34.463Z,16.90
2019-03-28T01:56:05.780Z,17.70
2019-03-28T01:58:37.087Z,17.35
2019-03-28T02:01:08.422Z,17.90
2019-03-28T02:03:39.629Z,17.00
2019-03-28T02:06:10.936Z,18.37
2019-03-28T02:08:42.306Z,18.10
2019-03-28T02:11:13.616Z,17.65
2019-03-28T02:13:44.947Z,16.90
2019-03-28T02:16:16.273Z,18.50
2019-03-28T02:18:47.524Z,17.62
2019-03-28T02:21:18.911Z,19.17
2019-03-28T02:23:50.267Z,18.87
2019-03-28T02:26:21.540Z,18.98
2019-03-28T02:28:52.855Z,20.03
2019-03-28T02:31:24.158Z,19.10
2019-03-28T02:33:55.442Z,21.42
2019-03-28T02:36:26.649Z,20.10
2019-03-28T02:38:58.585Z,20.45
2019-03-28T02:41:30.047Z,21.68
2019-03-28T02:44:01.319Z,19.82
2019-03-28T02:46:32.647Z,21.90
2019-03-28T02:49:04.005Z,20.80
2019-03-28T02:51:35.338Z,22.20
2019-03-28T02:54:06.690Z,21.57
2019-03-28T02:56:37.945Z,22.65
2019-03-28T02:59:09.257Z,21.20
2019-03-28T03:01:40.823Z,21.93
2019-03-28T03:04:12.121Z,22.90
2019-03-28T03:06:43.414Z,21.20
2019-03-28T03:14:39.763Z,22.58
2019-03-28T03:17:11.109Z,21.65
2019-03-28T03:19:42.496Z,23.20
2019-03-28T03:22:13.908Z,23.12
2019-03-28T03:24:45.232Z,21.42
2019-03-28T03:27:16.540Z,21.43
2019-03-28T03:29:47.942Z,21.85
2019-03-28T03:32:19.593Z,21.40
2019-03-28T03:34:50.999Z,22.10
2019-03-28T03:37:22.412Z,22.35
2019-03-28T03:39:53.723Z,22.75
2019-03-28T03:42:25.035Z,21.20
2019-03-28T03:44:56.378Z,21.93
2019-03-28T03:47:27.686Z,23.73
2019-03-28T03:49:58.986Z,21.73
2019-03-28T03:52:30.351Z,21.83
2019-03-28T03:55:01.671Z,22.25
2019-03-28T03:57:32.989Z,21.90
2019-03-28T04:00:04.627Z,22.15
2019-03-28T04:02:36.598Z,22.30
2019-03-28T04:05:08.744Z,20.90
2019-03-28T04:07:39.927Z,19.95
2019-03-28T04:10:11.401Z,20.48
2019-03-28T04:12:42.802Z,18.82
2019-03-28T04:15:14.172Z,19.35
2019-03-28T04:17:45.507Z,19.15
2019-03-28T04:20:16.864Z,18.48
2019-03-28T04:22:48.215Z,19.50
2019-03-28T04:25:19.532Z,19.50
2019-03-28T04:27:50.869Z,16.57
2019-03-28T04:30:22.792Z,17.87
2019-03-28T04:32:54.374Z,17.70
2019-03-28T04:35:25.742Z,18.95
2019-03-28T04:37:57.132Z,18.65
2019-03-28T04:40:28.492Z,19.20
2019-03-28T04:42:59.877Z,18.73
2019-03-28T04:45:31.074Z,18.27
2019-03-28T04:48:02.377Z,18.00
2019-03-28T04:50:33.750Z,19.37
2019-03-28T04:53:05.115Z,19.35
2019-03-28T04:55:36.551Z,19.70
2019-03-28T04:58:07.889Z,18.95
2019-03-28T05:00:39.117Z,20.20
2019-03-28T05:03:10.437Z,20.05
2019-03-28T05:05:41.780Z,20.02
2019-03-28T05:08:13.091Z,20.17
2019-03-28T05:10:44.409Z,20.25
2019-03-28T05:13:15.767Z,21.10
2019-03-28T05:15:47.014Z,21.40
2019-03-28T05:18:18.328Z,20.32
2019-03-28T05:20:49.751Z,19.50
2019-03-28T05:23:21.096Z,20.45
2019-03-28T05:25:52.429Z,20.08
2019-03-28T05:28:23.693Z,20.20
2019-03-28T05:30:57.368Z,19.98
2019-03-28T05:33:28.724Z,20.80
2019-03-28T05:36:00.077Z,19.80
2019-03-28T05:38:31.394Z,19.40
2019-03-28T05:41:02.724Z,20.00
2019-03-28T05:43:34.048Z,20.05
2019-03-28T05:46:05.400Z,22.05
2019-03-28T05:48:36.774Z,20.37
2019-03-28T05:51:08.186Z,20.95
2019-03-28T05:53:39.406Z,20.32
2019-03-28T05:56:10.717Z,21.95
2019-03-28T05:58:41.990Z,20.43
2019-03-28T06:01:13.396Z,20.53
2019-03-28T06:03:44.725Z,20.15
2019-03-28T06:06:16.047Z,21.87
2019-03-28T06:08:47.358Z,19.73
2019-03-28T06:11:18.735Z,19.35
2019-03-28T06:13:49.931Z,21.25
2019-03-28T06:16:21.182Z,20.65
2019-03-28T06:18:52.543Z,20.10
2019-03-28T06:21:23.861Z,19.35
2019-03-28T06:23:55.102Z,20.32
2019-03-28T06:26:26.403Z,19.00
2019-03-28T06:28:57.726Z,18.27
2019-03-28T06:31:29.045Z,16.80
2019-03-28T06:34:00.536Z,17.60
2019-03-28T06:36:32.035Z,17.30
2019-03-28T06:39:03.723Z,16.60
2019-03-28T06:41:34.999Z,16.80
2019-03-28T06:44:06.363Z,17.00
2019-03-28T06:46:37.881Z,15.80
2019-03-28T06:49:09.024Z,16.05
2019-03-28T06:51:40.316Z,16.10
2019-03-28T06:54:11.584Z,16.05
2019-03-28T06:56:43.488Z,15.95
2019-03-28T06:59:15.096Z,15.30
2019-03-28T07:01:46.462Z,17.98
2019-03-28T07:04:17.776Z,16.63
2019-03-28T07:06:49.030Z,17.23
2019-03-28T07:09:20.379Z,17.30
2019-03-28T07:11:51.666Z,18.20
2019-03-28T07:14:22.910Z,16.87
2019-03-28T07:16:54.188Z,18.13
2019-03-28T07:19:25.445Z,19.87
2019-03-28T07:21:56.765Z,18.87
2019-03-28T07:24:28.091Z,18.90
2019-03-28T07:26:59.470Z,18.98
2019-03-28T07:29:30.790Z,19.37
2019-03-28T07:32:02.100Z,19.00
2019-03-28T07:34:33.303Z,19.25
2019-03-28T07:37:04.620Z,19.50
2019-03-28T07:39:36.045Z,19.90
2019-03-28T07:42:07.410Z,21.30
2019-03-28T07:44:38.627Z,19.77
2019-03-28T07:47:09.929Z,19.27
2019-03-28T07:49:41.252Z,18.93
2019-03-28T07:52:12.565Z,18.95
2019-03-28T07:54:43.882Z,19.52
2019-03-28T07:57:15.417Z,20.70
2019-03-28T07:59:46.945Z,20.80
2019-03-28T08:02:18.165Z,19.95
2019-03-28T08:04:49.438Z,20.20
2019-03-28T08:07:20.772Z,19.55
2019-03-28T08:09:52.094Z,20.03
2019-03-28T08:12:23.636Z,18.50
2019-03-28T08:14:55.105Z,20.27
2019-03-28T08:17:26.397Z,19.42
2019-03-28T08:19:57.629Z,19.23
2019-03-28T08:22:29.869Z,19.90
2019-03-28T08:25:01.328Z,19.00
2019-03-28T08:27:34.275Z,19.30
2019-03-28T08:30:17.551Z,18.35
2019-03-28T08:32:40.089Z,18.62
2019-03-28T08:35:12.615Z,21.30
2019-03-28T08:37:44.521Z,19.40
2019-03-28T08:40:43.784Z,20.27
2019-03-28T08:43:15.430Z,20.30
2019-03-28T08:45:46.659Z,19.67
2019-03-28T08:48:19.700Z,21.42
2019-03-28T08:50:51.004Z,19.50
2019-03-28T08:53:22.305Z,19.52
2019-03-28T08:55:53.638Z,20.30
2019-03-28T08:58:24.938Z,20.23
2019-03-28T09:00:56.393Z,18.40
2019-03-28T09:03:27.764Z,19.25
2019-03-28T09:05:59.110Z,20.15
2019-03-28T09:08:30.441Z,19.00
2019-03-28T09:11:01.689Z,19.10
2019-03-28T09:13:33.082Z,18.27
2019-03-28T09:16:04.386Z,20.35
2019-03-28T09:18:35.690Z,19.42
2019-03-28T09:21:07.095Z,19.60
2019-03-28T09:23:38.402Z,19.20
2019-03-28T09:26:09.750Z,18.12
2019-03-28T09:28:40.987Z,16.80
2019-03-28T09:31:19.691Z,17.48
2019-03-28T09:33:45.295Z,16.90
2019-03-28T09:36:16.615Z,16.43
2019-03-28T09:38:47.871Z,16.70
2019-03-28T09:41:19.230Z,16.75
2019-03-28T09:43:55.749Z,15.10
2019-03-28T09:46:23.584Z,16.80
2019-03-28T09:48:54.969Z,15.68
2019-03-28T09:51:26.312Z,14.97
2019-03-28T09:53:57.593Z,14.65
2019-03-28T09:56:28.996Z,14.18
2019-03-28T09:59:00.555Z,12.95
2019-03-28T10:01:31.893Z,14.35
2019-03-28T10:04:06.245Z,13.32
2019-03-28T10:06:36.208Z,12.33
2019-03-28T10:09:09.167Z,12.35
2019-03-28T10:11:40.473Z,10.72
2019-03-28T10:14:11.786Z,10.55
2019-03-28T10:16:43.106Z,10.03
2019-03-28T10:19:14.409Z,11.08
2019-03-28T10:21:46.218Z,10.93
2019-03-28T10:24:17.545Z,10.80
2019-03-28T10:26:48.849Z,10.60
2019-03-28T10:29:20.081Z,10.00
2019-03-28T10:31:51.514Z,9.95
2019-03-28T10:34:22.779Z,9.70
2019-03-28T10:36:54.106Z,9.15
2019-03-28T10:39:25.552Z,8.77
2019-03-28T10:41:56.856Z,9.85
2019-03-28T10:44:28.157Z,9.25
2019-03-28T10:46:59.505Z,9.23
2019-03-28T10:49:30.796Z,9.15
2019-03-28T10:52:04.055Z,9.23
2019-03-28T10:54:35.067Z,9.77
2019-03-28T10:57:13.627Z,9.10
2019-03-28T10:59:39.620Z,9.80
2019-03-28T11:02:10.968Z,9.98
2019-03-28T11:04:42.256Z,10.45
2019-03-28T11:07:13.610Z,10.30
2019-03-28T11:09:45.061Z,10.25
2019-03-28T11:12:16.378Z,9.85
2019-03-28T11:14:47.748Z,9.95
2019-03-28T11:17:19.015Z,10.40
2019-03-28T11:19:50.250Z,9.88
2019-03-28T11:22:21.591Z,9.60
2019-03-28T11:24:52.929Z,10.75
2019-03-28T11:27:24.106Z,10.08
2019-03-28T11:29:55.428Z,10.20
2019-03-28T11:32:26.596Z,10.00
2019-03-28T11:34:58.027Z,11.60
2019-03-28T11:37:29.344Z,9.83
2019-03-28T11:40:00.493Z,11.18
2019-03-28T11:42:31.848Z,10.53
2019-03-28T11:45:03.232Z,10.65
2019-03-28T11:47:34.532Z,10.60
2019-03-28T11:50:06.503Z,10.82
2019-03-28T11:52:37.906Z,10.43
2019-03-28T11:55:10.892Z,9.43
2019-03-28T11:57:42.261Z,10.00
2019-03-28T12:00:15.191Z,10.05
2019-03-28T12:02:46.499Z,9.48
2019-03-28T12:05:17.880Z,8.83
2019-03-28T12:07:49.210Z,8.40
2019-03-28T12:10:20.623Z,8.63
2019-03-28T12:12:51.912Z,8.50
2019-03-28T12:15:23.223Z,8.33
2019-03-28T12:17:54.645Z,9.20
2019-03-28T12:20:25.944Z,9.18
2019-03-28T12:22:57.283Z,9.03
2019-03-28T12:25:28.625Z,8.33
2019-03-28T12:28:00.508Z,10.08
2019-03-28T12:30:32.039Z,9.70
2019-03-28T12:33:03.364Z,9.95
2019-03-28T12:35:34.650Z,10.20
2019-03-28T12:38:05.999Z,9.55
2019-03-28T12:40:37.385Z,9.30
2019-03-28T12:43:08.717Z,8.85
2019-03-28T12:45:40.007Z,9.30
2019-03-28T12:48:11.407Z,9.45
2019-03-28T12:50:42.620Z,8.08
2019-03-28T12:53:13.903Z,9.00
2019-03-28T12:55:45.263Z,8.45
2019-03-28T12:58:16.447Z,8.90
2019-03-28T13:00:47.758Z,9.38
2019-03-28T13:03:19.114Z,7.90
2019-03-28T13:05:50.415Z,8.13
2019-03-28T13:08:21.741Z,7.87
2019-03-28T13:10:53.624Z,8.13
2019-03-28T13:13:24.916Z,8.60
2019-03-28T13:15:56.081Z,8.00
2019-03-28T13:18:27.292Z,8.30
2019-03-28T13:21:12.355Z,7.58
2019-03-28T13:23:31.610Z,7.92
2019-03-28T13:26:03.037Z,7.07
2019-03-28T13:28:34.340Z,7.25
2019-03-28T13:31:05.669Z,6.90
2019-03-28T13:33:36.973Z,7.80
2019-03-28T13:36:08.292Z,7.50
2019-03-28T13:38:39.585Z,7.47
2019-03-28T13:41:10.901Z,6.20
2019-03-28T13:43:42.122Z,6.58
2019-03-28T13:46:13.495Z,6.47
2019-03-28T13:48:44.802Z,6.55
2019-03-28T13:51:16.109Z,6.55
2019-03-28T13:53:47.448Z,6.70
2019-03-28T13:56:18.688Z,6.30
2019-03-28T13:58:50.029Z,6.65
2019-03-28T14:01:22.540Z,5.92
2019-03-28T14:03:53.978Z,5.37
2019-03-28T14:06:25.311Z,6.17
2019-03-28T14:08:56.565Z,6.20
2019-03-28T14:11:27.948Z,6.25
2019-03-28T14:13:59.235Z,5.20
2019-03-28T14:16:30.510Z,4.95
2019-03-28T14:19:01.746Z,5.70
2019-03-28T14:21:33.198Z,5.97
2019-03-28T14:24:04.647Z,5.70
2019-03-28T14:26:37.589Z,6.33
2019-03-28T14:29:09.081Z,5.80
2019-03-28T14:31:40.430Z,6.10
2019-03-28T14:34:11.679Z,5.60
2019-03-28T14:36:43.101Z,6.20
2019-03-28T14:39:14.423Z,6.67
2019-03-28T14:41:46.476Z,6.87
2019-03-28T14:44:18.100Z,7.10
2019-03-28T14:46:49.418Z,6.78
2019-03-28T14:49:20.715Z,7.00
2019-03-28T14:51:52.185Z,6.90
2019-03-28T14:54:23.508Z,7.10
2019-03-28T14:56:56.012Z,6.72
2019-03-28T14:59:32.915Z,6.70
2019-03-28T15:02:01.388Z,6.37
2019-03-28T15:04:32.775Z,5.50
2019-03-28T15:07:07.159Z,6.15
2019-03-28T15:09:37.781Z,6.03
2019-03-28T15:12:09.259Z,5.83
2019-03-28T15:14:40.586Z,6.03
2019-03-28T15:17:11.973Z,5.95
2019-03-28T15:19:43.404Z,6.60
2019-03-28T15:22:14.780Z,5.90
2019-03-28T15:24:46.037Z,5.58
2019-03-28T15:27:17.472Z,5.95
2019-03-28T15:29:48.711Z,5.90
2019-03-28T15:32:20.118Z,5.72
2019-03-28T15:34:51.450Z,5.80
2019-03-28T15:37:22.815Z,5.50
2019-03-28T15:39:54.166Z,6.10
2019-03-28T15:42:27.983Z,6.10
2019-03-28T15:44:58.645Z,6.25
2019-03-28T15:47:30.063Z,6.50
2019-03-28T15:50:03.037Z,5.90
2019-03-28T15:52:34.452Z,6.00
2019-03-28T15:55:06.033Z,5.78
2019-03-28T15:57:40.708Z,5.70
2019-03-28T16:00:12.063Z,6.15
2019-03-28T16:02:43.402Z,6.17
2019-03-28T16:05:14.929Z,5.97
2019-03-28T16:07:47.494Z,6.35
2019-03-28T16:10:19.638Z,5.80
2019-03-28T16:12:50.956Z,5.78
2019-03-28T16:15:22.510Z,5.45
2019-03-28T16:17:53.968Z,5.62
2019-03-28T16:20:25.324Z,5.80
2019-03-28T16:22:56.759Z,5.37
2019-03-28T16:25:28.158Z,5.53
2019-03-28T16:27:59.565Z,5.28
2019-03-28T16:30:39.348Z,5.60
2019-03-28T16:33:11.124Z,6.00
2019-03-28T16:35:52.173Z,5.80
2019-03-28T16:38:42.453Z,5.45
2019-03-28T16:41:13.923Z,6.17
2019-03-28T16:43:45.254Z,6.22
2019-03-28T16:46:16.669Z,5.20
2019-03-28T16:48:53.507Z,6.75
2019-03-28T16:51:25.787Z,6.43
2019-03-28T16:53:57.323Z,6.15
2019-03-28T16:56:31.826Z,6.10
2019-03-28T16:59:03.261Z,6.30
2019-03-28T17:01:34.702Z,6.00
2019-03-28T17:04:19.758Z,6.10
2019-03-28T17:06:39.683Z,7.42
2019-03-28T17:09:11.033Z,6.05
2019-03-28T17:11:42.431Z,6.15
2019-03-28T17:14:13.764Z,5.95
2019-03-28T17:16:45.112Z,6.05
2019-03-28T17:19:16.496Z,6.30
2019-03-28T17:21:47.910Z,6.10
2019-03-28T17:24:19.371Z,6.20
2019-03-28T17:26:51.455Z,6.50
2019-03-28T17:29:22.850Z,6.57
2019-03-28T17:31:54.255Z,6.92
2019-03-28T17:34:34.817Z,6.40
2019-03-28T17:36:58.636Z,6.95
2019-03-28T17:39:30.132Z,6.75
2019-03-28T17:42:01.473Z,6.20
2019-03-28T17:44:33.335Z,5.90
2019-03-28T17:47:05.303Z,6.20
2019-03-28T17:49:36.671Z,6.50
2019-03-28T17:52:08.018Z,5.50
2019-03-28T17:54:39.373Z,6.00
2019-03-28T17:57:10.653Z,5.50
2019-03-28T17:59:45.198Z,5.33
2019-03-28T18:02:15.111Z,5.30
2019-03-28T18:04:48.189Z,5.40
2019-03-28T18:07:19.643Z,5.22
2019-03-28T18:09:51.019Z,4.42
2019-03-28T18:12:22.422Z,5.20
2019-03-28T18:14:53.772Z,4.70
2019-03-28T18:17:25.709Z,5.53
2019-03-28T18:19:57.078Z,5.70
2019-03-28T18:22:28.556Z,4.70
2019-03-28T18:24:59.876Z,5.30
2019-03-28T18:27:31.231Z,4.60
2019-03-28T18:30:05.287Z,5.30
2019-03-28T18:32:37.951Z,4.43
2019-03-28T18:35:09.002Z,4.30
2019-03-28T18:37:40.301Z,4.60
2019-03-28T18:40:12.143Z,4.50
2019-03-28T18:42:43.475Z,4.90
2019-03-28T18:45:15.246Z,4.70
2019-03-28T18:47:47.971Z,5.17
2019-03-28T18:50:19.359Z,5.22
2019-03-28T18:52:50.768Z,4.70
2019-03-28T18:55:22.169Z,4.67
2019-03-28T18:57:53.561Z,4.60
2019-03-28T19:00:24.955Z,4.58
2019-03-28T19:02:56.292Z,5.20
2019-03-28T19:05:27.683Z,4.95
2019-03-28T19:07:59.022Z,5.10
2019-03-28T19:10:30.404Z,4.67
2019-03-28T19:13:04.508Z,4.83
2019-03-28T19:15:34.985Z,5.58
2019-03-28T19:18:06.324Z,4.62
2019-03-28T19:20:40.053Z,5.12
2019-03-28T19:23:11.412Z,5.35
2019-03-28T19:25:42.748Z,5.10
2019-03-28T19:28:27.646Z,6.05
2019-03-28T19:30:47.114Z,5.83
2019-03-28T19:33:18.530Z,5.60
2019-03-28T19:35:51.106Z,5.70
2019-03-28T19:38:22.635Z,6.28
2019-03-28T19:40:54.034Z,6.00
2019-03-28T19:43:25.947Z,5.40
2019-03-28T19:45:57.268Z,5.00
2019-03-28T19:48:28.654Z,6.03
2019-03-28T19:51:00.043Z,5.30
2019-03-28T19:53:31.439Z,5.70
2019-03-28T19:56:02.798Z,4.90
2019-03-28T19:58:35.206Z,6.08
2019-03-28T20:01:07.168Z,5.78
2019-03-28T20:03:38.682Z,5.95
2019-03-28T20:06:21.698Z,5.60
2019-03-28T20:08:43.172Z,5.67
2019-03-28T20:11:14.533Z,6.30
2019-03-28T20:13:45.821Z,6.62
2019-03-28T20:16:17.177Z,6.72
2019-03-28T20:18:48.542Z,6.20
2019-03-28T20:21:19.914Z,6.83
2019-03-28T20:23:51.293Z,7.30
2019-03-28T20:26:22.665Z,6.40
2019-03-28T20:28:54.005Z,6.80
2019-03-28T20:31:25.409Z,6.67
2019-03-28T20:33:56.790Z,7.78
2019-03-28T20:36:37.419Z,7.00
2019-03-28T20:39:06.204Z,7.33
2019-03-28T20:41:37.991Z,8.37
2019-03-28T20:44:11.705Z,8.05
2019-03-28T20:46:42.502Z,7.83
2019-03-28T20:49:13.789Z,7.80
2019-03-28T20:51:45.117Z,7.60
2019-03-28T20:54:16.471Z,8.07
2019-03-28T20:56:47.882Z,8.55
2019-03-28T20:59:19.175Z,7.90
2019-03-28T21:01:50.519Z,7.42
2019-03-28T21:04:31.162Z,8.30
2019-03-28T21:06:55.463Z,8.40
2019-03-28T21:09:27.666Z,9.15
2019-03-28T21:12:00.128Z,9.35
2019-03-28T21:14:31.565Z,8.40
2019-03-28T21:17:03.194Z,9.23
2019-03-28T21:19:34.541Z,9.97
2019-03-28T21:22:06.099Z,9.95
2019-03-28T21:24:37.409Z,9.98
2019-03-28T21:27:10.161Z,9.78
2019-03-28T21:29:48.698Z,9.80
2019-03-28T21:32:14.611Z,10.43
2019-03-28T21:34:46.843Z,9.10
2019-03-28T21:37:18.615Z,11.00
2019-03-28T21:39:50.266Z,10.88
2019-03-28T21:42:21.609Z,10.33
2019-03-28T21:44:52.937Z,10.10
2019-03-28T21:47:24.815Z,10.50
2019-03-28T21:49:56.240Z,11.50
2019-03-28T21:52:27.491Z,10.25
2019-03-28T21:55:00.395Z,9.95
2019-03-28T21:57:31.747Z,10.28
2019-03-28T22:00:03.472Z,10.40
2019-03-28T22:02:35.967Z,11.48
2019-03-28T22:05:08.767Z,11.03
2019-03-28T22:07:41.118Z,11.57
2019-03-28T22:10:12.971Z,12.15
2019-03-28T22:12:44.590Z,12.63
2019-03-28T22:15:16.226Z,12.05
2019-03-28T22:17:47.957Z,13.30
2019-03-28T22:20:19.540Z,13.15
2019-03-28T22:22:51.184Z,11.28
2019-03-28T22:25:22.875Z,12.10
2019-03-28T22:27:54.567Z,12.28
2019-03-28T22:30:26.278Z,11.13
2019-03-28T22:32:57.954Z,12.20
2019-03-28T22:35:29.601Z,13.00
2019-03-28T22:38:01.247Z,11.38
2019-03-28T22:40:32.923Z,11.28
2019-03-28T22:43:04.527Z,12.50
2019-03-28T22:45:36.118Z,12.35
2019-03-28T22:48:11.055Z,12.23
2019-03-28T22:50:41.185Z,11.83
2019-03-28T22:53:12.820Z,11.40
2019-03-28T22:55:44.673Z,11.50
2019-03-28T22:58:16.370Z,10.93
2019-03-28T23:00:49.290Z,11.53
2019-03-28T23:03:21.167Z,11.33
2019-03-28T23:05:52.754Z,10.50
2019-03-28T23:08:24.446Z,11.28
2019-03-28T23:10:56.046Z,11.43
2019-03-28T23:13:27.712Z,11.33
2019-03-28T23:15:59.414Z,13.28
2019-03-28T23:18:31.176Z,12.37
2019-03-28T23:21:02.850Z,12.98
2019-03-28T23:23:34.544Z,12.87
2019-03-28T23:26:06.130Z,11.78
2019-03-28T23:28:37.780Z,12.27
2019-03-28T23:31:09.342Z,12.75
2019-03-28T23:33:41.105Z,13.20
2019-03-28T23:36:12.722Z,13.08
2019-03-28T23:38:44.340Z,13.60
2019-03-28T23:41:16.058Z,13.20
2019-03-28T23:43:47.566Z,14.63
2019-03-28T23:46:19.100Z,14.68
2019-03-28T23:48:50.682Z,15.73
2019-03-28T23:51:22.282Z,15.80
2019-03-28T23:53:53.866Z,15.37
2019-03-28T23:56:25.524Z,15.95
2019-03-28T23:58:57.167Z,16.37
